Gold Beach, OR (97444)

6:45 AM PST on November 27, 2014 (GMT -0800)
KF7MWX | Change Station
CLOSE
Current Station
Personal Weather Station
Location: Gold Beach, OR
Elevation: 56 ft
Nearby Weather Stations

Elev 56 ft 42.41 °N, 124.42 °W | Updated 4 seconds ago

Rain
Rain
60.3 °F
Feels Like 60.3 °F
N
7.6
Wind Variable Wind from West
Gusts 22.8 mph

Today
High -- | Low -- °F
--% Chance of Precip.
Yesterday
High -- | Low -- °F
Precip. -- in
7:22 AM 4:47 PM
Waxing Crescent, 30% visible
Pressure 30.08 in
Visibility 9.0 miles
Clouds Few 1300 ft
Dew Point 52 °F
Humidity 75%
Rainfall 0.06 in
Snow Depth Not available.
UV 0 out of 12
Pollen .30 out of 12
Air Quality Not available.
Flu Activity Not available.
SPECI KBOK 271409Z AUTO 14009KT 9SM -RA FEW013 14/12 A3008 RMK AO2 P0000

More Conditions Fewer Conditions

Pressure 30.08 in
Visibility 9.0 miles
Clouds Few 1300 ft
Dew Point 52 °F
Humidity 75%
Rainfall 0.06 in
Snow Depth Not available.
UV 0 out of 12
Pollen .30 out of 12
Air Quality Not available.
Flu Activity Not available.
SPECI KBOK 271409Z AUTO 14009KT 9SM -RA FEW013 14/12 A3008 RMK AO2 P0000

More Conditions Fewer Conditions

10-Day Weather Forecast

Almanac

Astronomy

Nov. 27, 2014 Rise Set
Actual Time
Civil Twilight
Nautical Twilight
Astronomical Twilight
Moon
Length of Visible Light
Length of Day
Tomorrow will be .
, % of the Moon is Illuminated

Today's Extremes

State Highs State Lows

Community

WunderPhotos

Upload Photos

1,774,005 photos uploaded!

WunderBlogs® & News

Nearby

Air Quality

  Air Quality AQ Index Pollutant
Not available.

Snow Depth

Station Depth Elevation

Earthquake Activity

City Distance Mag. Time & Date
Minimum magnitude displayed is 2.5.

Coastal Water Temperatures

Place Temperature

Nearby Weather Stations